createdAt,value
2017-12-31T00:00:37.228Z,0
2017-12-31T00:01:37.526Z,0
2017-12-31T00:02:37.560Z,0
2017-12-31T00:03:37.553Z,0
2017-12-31T00:04:37.565Z,0
2017-12-31T00:06:52.283Z,0
2017-12-31T00:07:37.388Z,0
2017-12-31T00:08:37.614Z,0
2017-12-31T00:09:37.133Z,0
2017-12-31T00:10:37.478Z,0
2017-12-31T00:12:37.481Z,0
2017-12-31T00:13:37.452Z,0
2017-12-31T00:14:52.427Z,0
2017-12-31T00:15:37.496Z,0
2017-12-31T00:16:37.534Z,0
2017-12-31T00:17:37.308Z,0
2017-12-31T00:18:37.808Z,0
2017-12-31T00:19:37.594Z,0
2017-12-31T00:20:37.858Z,0
2017-12-31T00:21:37.918Z,0
2017-12-31T00:23:07.232Z,0
2017-12-31T00:23:52.591Z,0
2017-12-31T00:24:37.954Z,0
2017-12-31T00:25:37.960Z,0
2017-12-31T00:26:37.940Z,0
2017-12-31T00:27:37.716Z,0
2017-12-31T00:28:37.739Z,0
2017-12-31T00:29:37.786Z,0
2017-12-31T00:30:38.040Z,0
2017-12-31T00:31:37.808Z,0
2017-12-31T00:32:38.043Z,0
2017-12-31T00:33:38.111Z,0
2017-12-31T00:34:38.128Z,0
2017-12-31T00:35:37.875Z,0
2017-12-31T00:36:38.127Z,0
2017-12-31T00:38:38.202Z,0
2017-12-31T00:39:38.215Z,0
2017-12-31T00:40:38.217Z,0
2017-12-31T00:41:38.228Z,0
2017-12-31T00:42:38.255Z,0
2017-12-31T00:43:37.748Z,0
2017-12-31T00:44:38.288Z,0
2017-12-31T00:45:38.313Z,0
2017-12-31T00:46:37.820Z,0
2017-12-31T00:47:38.331Z,0
2017-12-31T00:48:38.481Z,0
2017-12-31T00:49:38.368Z,0
2017-12-31T00:50:38.396Z,0
2017-12-31T00:51:38.144Z,0
2017-12-31T00:52:52.852Z,0
2017-12-31T00:53:38.245Z,0
2017-12-31T00:54:52.929Z,0
2017-12-31T00:55:38.545Z,0
2017-12-31T00:57:38.254Z,0
2017-12-31T00:58:38.533Z,0
2017-12-31T00:59:53.223Z,0
2017-12-31T01:00:38.577Z,0
2017-12-31T01:01:53.279Z,0
2017-12-31T01:02:38.622Z,0
2017-12-31T01:03:38.650Z,0
2017-12-31T01:04:38.651Z,0
2017-12-31T01:05:38.429Z,0
2017-12-31T01:06:53.357Z,0
2017-12-31T01:07:38.672Z,0
2017-12-31T01:09:53.411Z,0
2017-12-31T01:10:38.519Z,0
2017-12-31T01:11:38.766Z,0
2017-12-31T01:12:53.492Z,0
2017-12-31T01:13:38.804Z,0
2017-12-31T01:14:38.577Z,0
2017-12-31T01:15:38.580Z,0
2017-12-31T01:16:38.862Z,0
2017-12-31T01:17:53.542Z,0
2017-12-31T01:18:38.917Z,0
2017-12-31T01:19:38.697Z,0
2017-12-31T01:21:38.687Z,0
2017-12-31T01:22:53.381Z,0
2017-12-31T01:23:38.739Z,0
2017-12-31T01:24:38.736Z,0
2017-12-31T01:25:53.430Z,0
2017-12-31T01:26:39.054Z,0
2017-12-31T01:27:38.797Z,0
2017-12-31T01:28:38.849Z,0
2017-12-31T01:29:38.848Z,0
2017-12-31T01:30:38.887Z,0
2017-12-31T01:31:38.864Z,0
2017-12-31T01:32:38.656Z,0
2017-12-31T01:33:39.206Z,0
2017-12-31T01:34:39.194Z,0
2017-12-31T01:35:39.192Z,0
2017-12-31T01:36:38.739Z,0
2017-12-31T01:37:39.255Z,0
2017-12-31T01:38:39.261Z,0
2017-12-31T01:39:38.770Z,0
2017-12-31T01:40:39.054Z,0
2017-12-31T01:42:08.657Z,0
2017-12-31T01:42:39.385Z,0
2017-12-31T01:43:53.520Z,0
2017-12-31T01:44:39.366Z,0
2017-12-31T01:45:39.384Z,0
2017-12-31T01:46:39.164Z,0
2017-12-31T01:47:39.402Z,0
2017-12-31T01:48:39.477Z,0
2017-12-31T01:49:39.231Z,0
2017-12-31T01:50:39.499Z,0
2017-12-31T01:51:39.503Z,0
2017-12-31T01:52:39.523Z,0
2017-12-31T01:53:39.272Z,0
2017-12-31T01:54:39.285Z,0
2017-12-31T01:55:53.737Z,0
2017-12-31T01:56:39.310Z,0
2017-12-31T01:57:54.015Z,0
2017-12-31T01:58:39.625Z,0
2017-12-31T01:59:39.412Z,0
2017-12-31T02:00:39.636Z,0
2017-12-31T02:01:39.671Z,0
2017-12-31T02:02:39.410Z,0
2017-12-31T02:03:39.456Z,0
2017-12-31T02:04:39.458Z,0
2017-12-31T02:05:39.480Z,0
2017-12-31T02:06:39.508Z,0
2017-12-31T02:07:54.568Z,0
2017-12-31T02:08:39.285Z,0
2017-12-31T02:09:54.240Z,0
2017-12-31T02:10:39.566Z,0
2017-12-31T02:11:39.648Z,0
2017-12-31T02:12:54.548Z,0
2017-12-31T02:13:39.638Z,0
2017-12-31T02:14:39.899Z,0
2017-12-31T02:15:39.662Z,0
2017-12-31T02:16:39.673Z,0
2017-12-31T02:17:39.716Z,0
2017-12-31T02:18:39.734Z,0
2017-12-31T02:19:39.974Z,0
2017-12-31T02:20:39.767Z,0
2017-12-31T02:21:40.033Z,0
2017-12-31T02:22:39.795Z,0
2017-12-31T02:24:40.076Z,0
2017-12-31T02:25:40.113Z,0
2017-12-31T02:26:39.870Z,0
2017-12-31T02:27:39.934Z,0
2017-12-31T02:28:54.834Z,0
2017-12-31T02:29:40.184Z,0
2017-12-31T02:30:39.917Z,0
2017-12-31T02:31:54.637Z,0
2017-12-31T02:32:40.268Z,0
2017-12-31T02:33:40.004Z,0
2017-12-31T02:34:39.984Z,0
2017-12-31T02:35:54.704Z,0
2017-12-31T02:37:40.327Z,0
2017-12-31T02:38:40.329Z,0
2017-12-31T02:39:40.373Z,0
2017-12-31T02:40:40.355Z,0
2017-12-31T02:41:40.391Z,0
2017-12-31T02:42:40.412Z,0
2017-12-31T02:43:40.445Z,0
2017-12-31T02:44:54.860Z,0
2017-12-31T02:45:40.434Z,0
2017-12-31T02:46:40.471Z,0
2017-12-31T02:48:40.009Z,0
2017-12-31T02:49:40.280Z,0
2017-12-31T02:50:55.200Z,0
2017-12-31T02:51:40.317Z,0
2017-12-31T02:52:40.580Z,0
2017-12-31T02:53:55.273Z,0
2017-12-31T02:54:40.606Z,0
2017-12-31T02:55:40.631Z,0
2017-12-31T02:56:40.395Z,0
2017-12-31T02:57:40.674Z,0
2017-12-31T02:58:40.466Z,0
2017-12-31T02:59:40.699Z,0
2017-12-31T03:01:09.813Z,0
2017-12-31T03:01:40.788Z,0
2017-12-31T03:02:40.771Z,0
2017-12-31T03:03:40.290Z,0
2017-12-31T03:04:40.807Z,0
2017-12-31T03:05:40.554Z,0
2017-12-31T03:06:40.829Z,0
2017-12-31T03:07:40.853Z,0
2017-12-31T03:08:40.863Z,0
2017-12-31T03:09:55.565Z,0
2017-12-31T03:10:55.313Z,0
2017-12-31T03:11:40.406Z,0
2017-12-31T03:12:40.688Z,0
2017-12-31T03:14:40.993Z,0
2017-12-31T03:15:55.652Z,0
2017-12-31T03:16:55.701Z,0
2017-12-31T03:17:40.756Z,0
2017-12-31T03:18:41.026Z,0
2017-12-31T03:19:40.792Z,0
2017-12-31T03:20:41.062Z,0
2017-12-31T03:21:40.846Z,0
2017-12-31T03:22:41.121Z,0
2017-12-31T03:23:55.792Z,0
2017-12-31T03:24:40.882Z,0
2017-12-31T03:25:55.598Z,0
2017-12-31T03:26:41.157Z,0
2017-12-31T03:27:41.213Z,0
2017-12-31T03:28:40.976Z,0
2017-12-31T03:29:55.901Z,0
2017-12-31T03:30:55.935Z,0
2017-12-31T03:31:41.019Z,0
2017-12-31T03:33:41.336Z,0
2017-12-31T03:34:56.005Z,0
2017-12-31T03:35:41.077Z,0
2017-12-31T03:36:41.344Z,0
2017-12-31T03:37:41.355Z,0
2017-12-31T03:39:40.887Z,0
2017-12-31T03:40:40.902Z,0
2017-12-31T03:41:41.437Z,0
2017-12-31T03:42:41.210Z,0
2017-12-31T03:43:41.468Z,0
2017-12-31T03:44:41.476Z,0
2017-12-31T03:45:41.523Z,0
2017-12-31T03:46:40.752Z,0
2017-12-31T03:47:55.948Z,0
2017-12-31T03:48:41.549Z,0
2017-12-31T03:49:41.332Z,0
2017-12-31T03:50:41.107Z,0
2017-12-31T03:51:41.615Z,0
2017-12-31T03:52:41.621Z,0
2017-12-31T03:53:41.398Z,0
2017-12-31T03:54:41.662Z,0
2017-12-31T03:55:41.720Z,0
2017-12-31T03:56:56.355Z,0
2017-12-31T03:57:41.502Z,0
2017-12-31T03:58:41.467Z,0
2017-12-31T03:59:41.502Z,0
2017-12-31T04:00:41.519Z,0
2017-12-31T04:01:56.467Z,0
2017-12-31T04:02:41.541Z,0
2017-12-31T04:03:41.832Z,0
2017-12-31T04:04:41.610Z,0
2017-12-31T04:05:41.841Z,0
2017-12-31T04:06:41.597Z,0
2017-12-31T04:07:41.650Z,0
2017-12-31T04:08:41.415Z,0
2017-12-31T04:09:56.333Z,0
2017-12-31T04:10:41.448Z,0
2017-12-31T04:11:41.964Z,0
2017-12-31T04:12:41.743Z,0
2017-12-31T04:13:42.000Z,0
2017-12-31T04:14:41.751Z,0
2017-12-31T04:15:42.034Z,0
2017-12-31T04:16:41.806Z,0
2017-12-31T04:17:42.084Z,0
2017-12-31T04:18:42.077Z,0
2017-12-31T04:19:56.756Z,0
2017-12-31T04:20:41.863Z,0
2017-12-31T04:21:42.119Z,0
2017-12-31T04:22:41.923Z,0
2017-12-31T04:23:41.911Z,0
2017-12-31T04:24:41.939Z,0
2017-12-31T04:25:41.950Z,0
2017-12-31T04:26:41.988Z,0
2017-12-31T04:27:41.984Z,0
2017-12-31T04:28:41.998Z,0
2017-12-31T04:29:42.022Z,0
2017-12-31T04:30:41.788Z,0
2017-12-31T04:31:42.312Z,0
2017-12-31T04:32:42.321Z,0
2017-12-31T04:33:42.371Z,0
2017-12-31T04:35:57.061Z,0
2017-12-31T04:36:57.100Z,0
2017-12-31T04:37:42.404Z,0
2017-12-31T04:38:42.197Z,0
2017-12-31T04:39:42.187Z,0
2017-12-31T04:40:42.461Z,0
2017-12-31T04:42:42.498Z,0
2017-12-31T04:43:56.940Z,0
2017-12-31T04:44:42.285Z,0
2017-12-31T04:45:57.216Z,0
2017-12-31T04:46:42.326Z,0
2017-12-31T04:47:42.336Z,0
2017-12-31T04:48:42.375Z,0
2017-12-31T04:49:42.638Z,0
2017-12-31T04:50:42.412Z,0
2017-12-31T04:51:57.313Z,0
2017-12-31T04:52:42.686Z,0
2017-12-31T04:54:42.764Z,0
2017-12-31T04:55:42.713Z,0
2017-12-31T04:57:42.514Z,0
2017-12-31T04:58:57.212Z,0
2017-12-31T04:59:42.524Z,0
2017-12-31T05:00:42.839Z,0
2017-12-31T05:01:42.830Z,0
2017-12-31T05:02:57.563Z,0
2017-12-31T05:03:42.874Z,0
2017-12-31T05:04:42.673Z,0
2017-12-31T05:05:42.875Z,0
2017-12-31T05:06:42.919Z,0
2017-12-31T05:07:57.609Z,0
2017-12-31T05:08:42.685Z,0
2017-12-31T05:09:42.975Z,0
2017-12-31T05:10:42.726Z,0
2017-12-31T05:11:43.057Z,0
2017-12-31T05:13:43.038Z,0
2017-12-31T05:14:43.043Z,0
2017-12-31T05:15:42.577Z,0
2017-12-31T05:16:42.836Z,0
2017-12-31T05:17:43.131Z,0
2017-12-31T05:18:43.111Z,0
2017-12-31T05:19:43.200Z,0
2017-12-31T05:20:42.892Z,0
2017-12-31T05:21:57.604Z,0
2017-12-31T05:22:57.874Z,0
2017-12-31T05:23:42.969Z,0
2017-12-31T05:24:42.993Z,0
2017-12-31T05:25:43.006Z,0
2017-12-31T05:26:43.251Z,0
2017-12-31T05:27:43.272Z,0
2017-12-31T05:29:43.330Z,0
2017-12-31T05:30:57.995Z,0
2017-12-31T05:31:43.376Z,0
2017-12-31T05:32:43.366Z,0
2017-12-31T05:35:43.415Z,0
2017-12-31T05:36:43.201Z,0
2017-12-31T05:37:43.204Z,0
2017-12-31T05:38:58.146Z,0
2017-12-31T05:39:43.245Z,0
2017-12-31T05:40:43.262Z,0
2017-12-31T05:41:43.507Z,0
2017-12-31T05:42:43.287Z,0
2017-12-31T05:43:43.293Z,0
2017-12-31T05:44:43.595Z,0
2017-12-31T05:45:43.601Z,0
2017-12-31T05:46:43.375Z,0
2017-12-31T05:47:43.635Z,0
2017-12-31T05:48:43.379Z,0
2017-12-31T05:49:43.663Z,0
2017-12-31T05:50:43.412Z,0
2017-12-31T05:51:58.404Z,0
2017-12-31T05:52:43.468Z,0
2017-12-31T05:53:43.762Z,0
2017-12-31T05:54:58.400Z,0
2017-12-31T05:55:43.241Z,0
2017-12-31T05:56:58.204Z,0
2017-12-31T05:57:58.232Z,0
2017-12-31T05:58:43.582Z,0
2017-12-31T05:59:43.316Z,0
2017-12-31T06:00:43.607Z,0
2017-12-31T06:01:43.659Z,0
2017-12-31T06:02:43.622Z,0
2017-12-31T06:03:43.639Z,0
2017-12-31T06:05:43.947Z,0
2017-12-31T06:06:43.710Z,0
2017-12-31T06:07:43.759Z,0
2017-12-31T06:08:43.756Z,0
2017-12-31T06:10:58.698Z,0
2017-12-31T06:11:43.768Z,0
2017-12-31T06:12:43.814Z,0
2017-12-31T06:13:43.807Z,0
2017-12-31T06:14:43.585Z,0
2017-12-31T06:15:58.787Z,0
2017-12-31T06:16:43.972Z,0
2017-12-31T06:17:44.146Z,0
2017-12-31T06:18:43.915Z,0
2017-12-31T06:19:44.188Z,0
2017-12-31T06:20:43.411Z,0
2017-12-31T06:21:43.694Z,0
2017-12-31T06:22:43.730Z,0
2017-12-31T06:24:44.015Z,0
2017-12-31T06:25:58.933Z,0
2017-12-31T06:26:58.977Z,0
2017-12-31T06:27:44.302Z,0
2017-12-31T06:28:44.086Z,0
2017-12-31T06:30:43.848Z,0
2017-12-31T06:31:44.377Z,0
2017-12-31T06:32:44.244Z,4
2017-12-31T06:33:44.421Z,0
2017-12-31T06:34:44.205Z,0
2017-12-31T06:35:44.200Z,0
2017-12-31T06:36:44.447Z,4
2017-12-31T06:37:44.247Z,4
2017-12-31T06:38:44.486Z,4
2017-12-31T06:39:44.261Z,4
2017-12-31T06:40:44.553Z,4
2017-12-31T06:41:44.295Z,4
2017-12-31T06:43:13.908Z,8
2017-12-31T06:43:44.345Z,8
2017-12-31T06:44:44.380Z,8
2017-12-31T06:45:44.643Z,8
2017-12-31T06:46:44.386Z,8
2017-12-31T06:47:44.645Z,12
2017-12-31T06:48:44.652Z,12
2017-12-31T06:49:44.443Z,16
2017-12-31T06:50:59.113Z,20
2017-12-31T06:51:44.489Z,20
2017-12-31T06:52:44.489Z,24
2017-12-31T06:53:44.770Z,28
2017-12-31T06:55:44.303Z,40
2017-12-31T06:56:44.812Z,48
2017-12-31T06:57:59.482Z,56
2017-12-31T06:58:44.827Z,60
2017-12-31T06:59:44.908Z,68
2017-12-31T07:00:44.872Z,76
2017-12-31T07:01:44.912Z,84
2017-12-31T07:02:44.913Z,92
2017-12-31T07:03:44.681Z,96
2017-12-31T07:04:44.684Z,108
2017-12-31T07:05:44.734Z,120
2017-12-31T07:07:44.979Z,140
2017-12-31T07:08:44.748Z,144
2017-12-31T07:09:44.806Z,152
2017-12-31T07:10:44.540Z,156
2017-12-31T07:11:44.814Z,156
2017-12-31T07:12:44.594Z,160
2017-12-31T07:13:45.112Z,164
2017-12-31T07:14:45.122Z,168
2017-12-31T07:15:44.903Z,176
2017-12-31T07:16:44.907Z,184
2017-12-31T07:17:45.161Z,200
2017-12-31T07:18:44.939Z,208
2017-12-31T07:19:45.274Z,212
2017-12-31T07:20:59.923Z,220
2017-12-31T07:21:45.263Z,228
2017-12-31T07:22:45.280Z,232
2017-12-31T07:23:45.013Z,232
2017-12-31T07:24:45.042Z,236
2017-12-31T07:25:45.044Z,232
2017-12-31T07:26:45.323Z,236
2017-12-31T07:27:45.100Z,244
2017-12-31T07:28:44.876Z,240
2017-12-31T07:30:00.064Z,236
2017-12-31T07:30:45.127Z,236
2017-12-31T07:33:00.085Z,228
2017-12-31T07:33:45.488Z,228
2017-12-31T07:34:59.874Z,232
2017-12-31T07:35:44.971Z,232
2017-12-31T07:37:45.267Z,260
2017-12-31T07:39:00.200Z,300
2017-12-31T07:39:45.537Z,320
2017-12-31T07:40:59.991Z,356
2017-12-31T07:41:45.557Z,376
2017-12-31T07:42:45.069Z,400
2017-12-31T07:43:45.086Z,428
2017-12-31T07:44:45.644Z,460
2017-12-31T07:46:00.327Z,496
2017-12-31T07:46:45.649Z,520
2017-12-31T07:47:45.423Z,568
2017-12-31T07:48:45.428Z,600
2017-12-31T07:49:45.188Z,560
2017-12-31T07:50:45.232Z,520
2017-12-31T07:53:00.200Z,472
2017-12-31T07:53:45.522Z,460
2017-12-31T07:54:45.297Z,448
2017-12-31T07:56:00.242Z,476
2017-12-31T07:56:45.335Z,496
2017-12-31T07:57:45.582Z,516
2017-12-31T07:59:45.648Z,628
2017-12-31T08:00:45.884Z,676
2017-12-31T08:02:00.337Z,652
2017-12-31T08:02:45.988Z,656
2017-12-31T08:03:45.455Z,696
2017-12-31T08:04:45.738Z,776
2017-12-31T08:05:45.985Z,848
2017-12-31T08:06:46.008Z,920
2017-12-31T08:07:46.046Z,980
2017-12-31T08:08:46.030Z,1032
2017-12-31T08:09:46.073Z,1108
2017-12-31T08:10:45.585Z,1188
2017-12-31T08:11:46.112Z,1244
2017-12-31T08:12:46.132Z,1280
2017-12-31T08:14:00.814Z,1324
2017-12-31T08:14:46.145Z,1324
2017-12-31T08:16:46.155Z,1208
2017-12-31T08:18:00.871Z,1156
2017-12-31T08:18:46.225Z,1136
2017-12-31T08:19:46.215Z,1112
2017-12-31T08:21:00.930Z,1132
2017-12-31T08:21:45.773Z,1164
2017-12-31T08:22:46.341Z,1208
2017-12-31T08:23:46.039Z,1248
2017-12-31T08:24:46.331Z,1296
2017-12-31T08:25:45.833Z,1356
2017-12-31T08:27:01.005Z,1376
2017-12-31T08:27:46.372Z,1372
2017-12-31T08:28:45.877Z,1396
2017-12-31T08:29:46.171Z,1416
2017-12-31T08:31:00.830Z,1388
2017-12-31T08:31:45.946Z,1400
2017-12-31T08:33:15.811Z,1484
2017-12-31T08:34:01.146Z,1560
2017-12-31T08:34:46.461Z,1612
2017-12-31T08:35:46.514Z,1588
2017-12-31T08:36:46.310Z,1492
2017-12-31T08:37:46.541Z,1488
2017-12-31T08:38:46.298Z,1548
2017-12-31T08:39:46.327Z,1532
2017-12-31T08:40:46.379Z,1424
2017-12-31T08:42:01.295Z,1292
2017-12-31T08:42:46.630Z,1204
2017-12-31T08:43:46.678Z,1120
2017-12-31T08:44:46.677Z,1196
2017-12-31T08:45:46.688Z,1276
2017-12-31T08:46:46.435Z,1228
2017-12-31T08:47:46.467Z,1188
2017-12-31T08:48:46.744Z,1240
2017-12-31T08:49:46.752Z,1340
2017-12-31T08:50:46.560Z,1396
2017-12-31T08:51:46.551Z,1376
2017-12-31T08:52:46.550Z,1324
2017-12-31T08:53:46.584Z,1240
2017-12-31T08:55:01.285Z,1132
2017-12-31T08:56:46.630Z,1084
2017-12-31T08:57:46.664Z,1132
2017-12-31T08:58:46.675Z,1188
2017-12-31T09:00:01.595Z,1204
2017-12-31T09:00:46.688Z,1192
2017-12-31T09:01:47.006Z,1180
2017-12-31T09:02:46.989Z,1260
2017-12-31T09:03:47.003Z,1340
2017-12-31T09:05:01.690Z,1556
2017-12-31T09:05:47.018Z,1676
2017-12-31T09:06:47.100Z,1780
2017-12-31T09:07:46.834Z,1868
2017-12-31T09:08:47.116Z,1996
2017-12-31T09:09:46.608Z,2080
2017-12-31T09:10:46.879Z,2124
2017-12-31T09:11:47.128Z,2088
2017-12-31T09:12:46.894Z,1964
2017-12-31T09:14:01.856Z,1808
2017-12-31T09:14:46.978Z,1712
2017-12-31T09:15:46.979Z,1620
2017-12-31T09:16:47.217Z,1544
2017-12-31T09:17:47.002Z,1468
2017-12-31T09:18:47.312Z,1376
2017-12-31T09:19:47.055Z,1328
2017-12-31T09:21:01.477Z,1360
2017-12-31T09:21:47.071Z,1392
2017-12-31T09:22:46.678Z,1420
2017-12-31T09:23:47.092Z,1440
2017-12-31T09:25:02.060Z,1416
2017-12-31T09:25:47.395Z,1444
2017-12-31T09:26:47.153Z,1500
2017-12-31T09:27:46.672Z,1476
2017-12-31T09:28:46.707Z,1464
2017-12-31T09:30:47.237Z,1516
2017-12-31T09:31:47.500Z,1512
2017-12-31T09:32:47.535Z,1472
2017-12-31T09:33:47.275Z,1452
2017-12-31T09:34:47.556Z,1428
2017-12-31T09:35:47.330Z,1476
2017-12-31T09:37:02.046Z,1328
2017-12-31T09:38:47.402Z,1096
2017-12-31T09:40:47.438Z,1792
2017-12-31T09:41:47.428Z,1836
2017-12-31T09:42:47.445Z,1760
2017-12-31T09:43:47.730Z,1516
2017-12-31T09:44:47.813Z,984
2017-12-31T09:45:47.526Z,956
2017-12-31T09:46:47.532Z,1160
2017-12-31T09:47:47.774Z,1308
2017-12-31T09:48:47.812Z,1356
2017-12-31T09:50:47.853Z,1412
2017-12-31T09:51:47.871Z,1504
2017-12-31T09:53:02.302Z,1616
2017-12-31T09:53:47.905Z,1564
2017-12-31T09:54:47.674Z,1420
2017-12-31T09:56:47.957Z,1396
2017-12-31T09:57:47.949Z,1408
2017-12-31T09:58:47.737Z,1440
2017-12-31T09:59:47.757Z,1528
2017-12-31T10:00:48.131Z,1432
2017-12-31T10:01:47.285Z,1344
2017-12-31T10:02:47.805Z,1252
2017-12-31T10:03:48.109Z,1256
2017-12-31T10:05:48.133Z,1048
2017-12-31T10:06:47.888Z,972
2017-12-31T10:08:02.831Z,1060
2017-12-31T10:09:02.607Z,1284
2017-12-31T10:10:48.252Z,1408
2017-12-31T10:11:48.258Z,1300
2017-12-31T10:12:48.270Z,1164
2017-12-31T10:13:48.265Z,1128
2017-12-31T10:14:47.779Z,1024
2017-12-31T10:16:02.707Z,1200
2017-12-31T10:16:48.303Z,1396
2017-12-31T10:17:48.357Z,1656
2017-12-31T10:18:48.341Z,1768
2017-12-31T10:19:48.383Z,1580
2017-12-31T10:20:48.360Z,1412
2017-12-31T10:21:47.904Z,1236
2017-12-31T10:22:48.434Z,1028
2017-12-31T10:23:48.424Z,1052
2017-12-31T10:24:48.468Z,1088
2017-12-31T10:25:48.521Z,1124
2017-12-31T10:26:48.483Z,1328
2017-12-31T10:27:48.251Z,1284
2017-12-31T10:28:48.564Z,1132
2017-12-31T10:30:02.977Z,1180
2017-12-31T10:30:48.100Z,1148
2017-12-31T10:31:48.606Z,1156
2017-12-31T10:32:48.379Z,1272
2017-12-31T10:33:48.103Z,1220
2017-12-31T10:34:48.651Z,1164
2017-12-31T10:35:48.654Z,1192
2017-12-31T10:36:48.176Z,1320
2017-12-31T10:37:47.935Z,1176
2017-12-31T10:38:48.470Z,1224
2017-12-31T10:40:03.154Z,1112
2017-12-31T10:40:48.520Z,1128
2017-12-31T10:41:48.537Z,1216
2017-12-31T10:42:48.804Z,1236
2017-12-31T10:43:48.285Z,1332
2017-12-31T10:44:48.582Z,1304
2017-12-31T10:45:48.847Z,1424
2017-12-31T10:47:03.522Z,1612
2017-12-31T10:47:48.371Z,1756
2017-12-31T10:49:48.928Z,1840
2017-12-31T10:50:48.944Z,1804
2017-12-31T10:51:48.982Z,1700
2017-12-31T10:52:49.047Z,1560
2017-12-31T10:53:48.757Z,1620
2017-12-31T10:54:48.758Z,1640
2017-12-31T10:56:03.685Z,1484
2017-12-31T10:57:03.455Z,1496
2017-12-31T10:58:03.725Z,1320
2017-12-31T10:59:48.944Z,1420
2017-12-31T11:01:03.529Z,1308
2017-12-31T11:01:49.116Z,1316
2017-12-31T11:02:49.243Z,1160
2017-12-31T11:03:48.926Z,984
2017-12-31T11:04:49.199Z,916
2017-12-31T11:05:49.198Z,868
2017-12-31T11:06:49.229Z,844
2017-12-31T11:08:03.929Z,856
2017-12-31T11:08:49.245Z,916
2017-12-31T11:09:49.020Z,880
2017-12-31T11:10:49.378Z,948
2017-12-31T11:12:03.984Z,908
2017-12-31T11:12:49.086Z,872
2017-12-31T11:13:49.386Z,956
2017-12-31T11:14:49.482Z,976
2017-12-31T11:15:48.901Z,1140
2017-12-31T11:16:48.905Z,1232
2017-12-31T11:18:04.097Z,1056
2017-12-31T11:18:49.474Z,1124
2017-12-31T11:19:49.482Z,1136
2017-12-31T11:20:49.528Z,1004
2017-12-31T11:21:49.528Z,884
2017-12-31T11:22:49.500Z,724
2017-12-31T11:23:49.528Z,640
2017-12-31T11:24:49.320Z,524
2017-12-31T11:26:49.342Z,460
2017-12-31T11:28:04.345Z,516
2017-12-31T11:28:49.625Z,504
2017-12-31T11:29:49.665Z,524
2017-12-31T11:30:49.177Z,540
2017-12-31T11:31:50.090Z,616
2017-12-31T11:32:49.443Z,772
2017-12-31T11:33:49.495Z,972
2017-12-31T11:34:49.739Z,1056
2017-12-31T11:35:49.743Z,936
2017-12-31T11:37:49.302Z,792
2017-12-31T11:39:04.490Z,868
2017-12-31T11:41:49.893Z,928
2017-12-31T11:43:04.551Z,1136
2017-12-31T11:43:49.901Z,956
2017-12-31T11:44:49.905Z,1008
2017-12-31T11:45:49.702Z,964
2017-12-31T11:46:49.697Z,1056
2017-12-31T11:47:49.969Z,968
2017-12-31T11:48:49.763Z,664
2017-12-31T11:49:49.761Z,732
2017-12-31T11:50:50.068Z,692
2017-12-31T11:51:49.781Z,696
2017-12-31T11:52:49.842Z,736
2017-12-31T11:53:50.182Z,776
2017-12-31T11:55:04.769Z,972
2017-12-31T11:55:50.158Z,932
2017-12-31T11:56:50.154Z,856
2017-12-31T11:57:49.643Z,1000
2017-12-31T11:59:50.197Z,948
2017-12-31T12:00:49.996Z,1040
2017-12-31T12:01:50.268Z,1280
2017-12-31T12:02:50.283Z,1768
2017-12-31T12:03:50.278Z,1880
2017-12-31T12:05:04.720Z,2088
2017-12-31T12:05:50.434Z,2004
2017-12-31T12:06:50.335Z,1816
2017-12-31T12:07:50.374Z,2024
2017-12-31T12:08:50.355Z,1728
2017-12-31T12:09:50.386Z,1712
2017-12-31T12:10:50.215Z,2148
2017-12-31T12:12:05.107Z,2296
2017-12-31T12:12:50.479Z,2772
2017-12-31T12:13:50.216Z,2568
2017-12-31T12:15:04.901Z,2008
2017-12-31T12:15:50.492Z,1392
2017-12-31T12:16:50.546Z,936
2017-12-31T12:17:50.546Z,856
2017-12-31T12:18:50.575Z,976
2017-12-31T12:19:50.567Z,1108
2017-12-31T12:20:50.350Z,1368
2017-12-31T12:21:50.702Z,1684
2017-12-31T12:22:50.646Z,2096
2017-12-31T12:23:50.424Z,2572
2017-12-31T12:25:05.339Z,2928
2017-12-31T12:25:50.691Z,3116
2017-12-31T12:26:50.488Z,3232
2017-12-31T12:28:05.397Z,3120
2017-12-31T12:28:50.731Z,3164
2017-12-31T12:29:50.544Z,2944
2017-12-31T12:31:05.450Z,2876
2017-12-31T12:31:50.545Z,2848
2017-12-31T12:32:50.565Z,2672
2017-12-31T12:33:50.582Z,2656
2017-12-31T12:34:50.383Z,2656
2017-12-31T12:35:50.876Z,2376
2017-12-31T12:36:50.899Z,2540
2017-12-31T12:37:50.974Z,2504
2017-12-31T12:38:50.989Z,2376
2017-12-31T12:39:50.701Z,2436
2017-12-31T12:40:50.742Z,2504
2017-12-31T12:41:51.028Z,2616
2017-12-31T12:42:51.025Z,2592
2017-12-31T12:43:50.811Z,2532
2017-12-31T12:44:50.800Z,2520
2017-12-31T12:46:05.492Z,2564
2017-12-31T12:47:05.776Z,2564
2017-12-31T12:47:51.112Z,2536
2017-12-31T12:48:51.172Z,2300
2017-12-31T12:49:51.143Z,2068
2017-12-31T12:51:05.861Z,2036
2017-12-31T12:52:51.218Z,1920
2017-12-31T12:53:51.096Z,1756
2017-12-31T12:54:51.239Z,1608
2017-12-31T12:55:51.308Z,1484
2017-12-31T12:56:51.058Z,1368
2017-12-31T12:57:51.062Z,1252
2017-12-31T12:58:51.350Z,1168
2017-12-31T12:59:51.086Z,1108
2017-12-31T13:01:06.074Z,1088
2017-12-31T13:01:51.414Z,1064
2017-12-31T13:03:05.831Z,1052
2017-12-31T13:03:51.182Z,1056
2017-12-31T13:04:51.468Z,1048
2017-12-31T13:05:51.227Z,1040
2017-12-31T13:06:51.509Z,1032
2017-12-31T13:07:51.487Z,968
2017-12-31T13:09:06.209Z,888
2017-12-31T13:09:51.288Z,876
2017-12-31T13:10:51.313Z,884
2017-12-31T13:12:06.261Z,920
2017-12-31T13:13:06.284Z,1008
2017-12-31T13:14:06.309Z,1132
2017-12-31T13:14:51.633Z,1224
2017-12-31T13:15:51.413Z,1252
2017-12-31T13:16:51.685Z,1304
2017-12-31T13:18:05.870Z,1260
2017-12-31T13:18:51.754Z,1236
2017-12-31T13:19:51.760Z,1284
2017-12-31T13:20:51.526Z,1436
2017-12-31T13:21:51.764Z,1476
2017-12-31T13:22:51.838Z,1584
2017-12-31T13:23:51.580Z,1656
2017-12-31T13:24:51.601Z,1688
2017-12-31T13:26:51.869Z,1508
2017-12-31T13:28:06.563Z,1348
2017-12-31T13:28:51.940Z,1276
2017-12-31T13:30:06.613Z,1216
2017-12-31T13:30:51.722Z,1184
2017-12-31T13:31:51.967Z,1200
2017-12-31T13:32:51.982Z,1240
2017-12-31T13:33:52.009Z,1164
2017-12-31T13:35:52.056Z,1128
2017-12-31T13:36:52.105Z,1164
2017-12-31T13:37:51.829Z,1212
2017-12-31T13:38:52.149Z,1256
2017-12-31T13:39:52.151Z,1300
2017-12-31T13:40:52.168Z,1288
2017-12-31T13:41:52.198Z,1236
2017-12-31T13:42:52.199Z,1196
2017-12-31T13:43:51.702Z,1224
2017-12-31T13:44:52.246Z,1228
2017-12-31T13:46:52.295Z,1120
2017-12-31T13:47:52.320Z,1120
2017-12-31T13:48:52.334Z,1168
2017-12-31T13:50:07.014Z,1252
2017-12-31T13:51:52.160Z,1340
2017-12-31T13:52:52.264Z,1332
2017-12-31T13:53:52.432Z,1316
2017-12-31T13:54:52.439Z,1256
2017-12-31T13:55:52.461Z,1136
2017-12-31T13:57:07.143Z,1028
2017-12-31T13:57:52.501Z,976
2017-12-31T13:58:52.291Z,924
2017-12-31T13:59:52.531Z,876
2017-12-31T14:00:52.587Z,840
2017-12-31T14:01:52.335Z,800
2017-12-31T14:02:52.644Z,768
2017-12-31T14:03:52.623Z,804
2017-12-31T14:04:52.718Z,864
2017-12-31T14:06:07.346Z,888
2017-12-31T14:06:52.681Z,896
2017-12-31T14:07:52.715Z,884
2017-12-31T14:08:52.458Z,872
2017-12-31T14:09:52.755Z,792
2017-12-31T14:10:52.777Z,712
2017-12-31T14:11:52.519Z,668
2017-12-31T14:12:52.782Z,676
2017-12-31T14:13:52.564Z,672
2017-12-31T14:14:52.612Z,664
2017-12-31T14:15:52.598Z,648
2017-12-31T14:16:52.866Z,608
2017-12-31T14:17:52.634Z,552
2017-12-31T14:18:52.654Z,508
2017-12-31T14:20:52.986Z,456
2017-12-31T14:22:07.664Z,436
2017-12-31T14:22:53.020Z,416
2017-12-31T14:25:07.721Z,368
2017-12-31T14:25:53.043Z,372
2017-12-31T14:26:53.091Z,364
2017-12-31T14:28:52.883Z,332
2017-12-31T14:29:53.121Z,324
2017-12-31T14:31:07.825Z,312
2017-12-31T14:31:52.914Z,304
2017-12-31T14:33:07.903Z,316
2017-12-31T14:33:52.957Z,324
2017-12-31T14:34:52.757Z,316
2017-12-31T14:35:53.248Z,312
2017-12-31T14:36:53.305Z,308
2017-12-31T14:38:07.957Z,292
2017-12-31T14:38:53.304Z,284
2017-12-31T14:39:53.086Z,284
2017-12-31T14:40:53.374Z,284
2017-12-31T14:41:53.163Z,284
2017-12-31T14:42:53.187Z,280
2017-12-31T14:43:53.193Z,272
2017-12-31T14:44:53.218Z,272
2017-12-31T14:45:53.466Z,268
2017-12-31T14:46:53.490Z,256
2017-12-31T14:47:53.269Z,236
2017-12-31T14:48:53.535Z,216
2017-12-31T14:49:53.544Z,196
2017-12-31T14:50:53.567Z,184
2017-12-31T14:51:53.566Z,168
2017-12-31T14:53:08.281Z,144
2017-12-31T14:53:53.639Z,132
2017-12-31T14:54:53.670Z,112
2017-12-31T14:55:53.647Z,104
2017-12-31T14:56:53.412Z,96
2017-12-31T14:57:53.482Z,96